Time;durP1;ratioP1;P1;durP2;ratioP2;P2;SDS_P1;SDS_P2;PMS_P1;PMS_P2;Temp;Humidity;BMP_temperature;BMP_pressure;BME280_temperature;BME280_humidity;BME280_pressure;Samples;Min_cycle;Max_cycle;Signal;HPM_P1;HPM_P2
2022/08/23 00:02:02;;;;;;;7.67;4.60;;;;;;;18.69;89.45;98604.91;1724486;82;21006;-82
2022/08/23 00:04:33;;;;;;;10.13;4.83;;;;;;;18.65;90.85;98602.11;1739053;82;21066;-81
2022/08/23 00:07:00;;;;;;;11.22;5.12;;;;;;;18.63;90.11;98607.95;1738989;82;21031;-81
2022/08/23 00:09:28;;;;;;;14.98;5.62;;;;;;;18.61;90.63;98607.70;1692813;81;21023;-82
2022/08/23 00:12:16;;;;;;;11.28;5.95;;;;;;;18.58;90.00;98613.14;1724346;80;21030;-81
2022/08/23 00:14:48;;;;;;;11.45;5.83;;;;;;;18.55;89.80;98619.95;1741328;80;21050;-82
2022/08/23 00:17:15;;;;;;;13.88;5.83;;;;;;;18.52;91.24;98620.97;1718013;82;21478;-81
2022/08/23 00:19:43;;;;;;;9.23;4.62;;;;;;;18.47;91.58;98623.91;1738252;82;21083;-81
2022/08/23 00:22:10;;;;;;;10.30;5.30;;;;;;;18.47;91.77;98623.91;1738375;82;21031;-81
2022/08/23 00:24:38;;;;;;;11.73;5.95;;;;;;;18.50;91.12;98613.64;1738334;82;21030;-80
2022/08/23 00:27:10;;;;;;;13.20;5.70;;;;;;;18.51;91.81;98614.52;1738086;82;20952;-81
2022/08/23 00:29:49;;;;;;;11.45;5.08;;;;;;;18.53;91.94;98618.72;1738305;82;21082;-81
2022/08/23 00:32:21;;;;;;;11.63;5.85;;;;;;;18.57;91.83;98632.53;1738095;82;22177;-81
2022/08/23 00:34:47;;;;;;;9.85;5.05;;;;;;;18.60;91.74;98636.27;1737533;82;21070;-81
2022/08/23 00:37:16;;;;;;;11.03;5.25;;;;;;;18.66;92.45;98631.91;1738237;82;20971;-80
2022/08/23 00:39:44;;;;;;;10.18;5.12;;;;;;;18.69;91.35;98621.19;1738176;82;21026;-80
2022/08/23 00:48:20;;;;;;;10.08;5.10;;;;;;;18.56;91.79;98605.83;1726694;81;21050;-80
2022/08/23 00:51:10;;;;;;;14.35;6.17;;;;;;;18.53;91.69;98608.20;1744505;82;21558;-80
2022/08/23 00:53:42;;;;;;;13.78;5.70;;;;;;;18.53;90.75;98617.89;1744748;82;21006;-80
2022/08/23 00:56:11;;;;;;;11.95;6.10;;;;;;;18.55;91.70;98608.94;1744484;81;21006;-80
2022/08/23 00:58:39;;;;;;;9.40;5.17;;;;;;;18.62;91.40;98617.27;1728481;81;21026;-79
2022/08/23 01:01:07;;;;;;;13.68;5.17;;;;;;;18.67;91.42;98624.40;1742468;82;21113;-80
2022/08/23 01:03:38;;;;;;;10.65;5.60;;;;;;;18.71;91.10;98619.30;1744387;82;21030;-80
2022/08/23 01:06:12;;;;;;;12.25;6.03;;;;;;;18.72;90.19;98609.61;1723868;82;21010;-80
2022/08/23 01:08:45;;;;;;;15.10;6.78;;;;;;;18.76;90.86;98611.09;1744527;82;21023;-80
2022/08/23 01:11:17;;;;;;;10.63;5.90;;;;;;;18.75;90.03;98612.05;1744668;82;21062;-80
2022/08/23 01:14:13;;;;;;;12.90;5.92;;;;;;;18.74;91.66;98609.89;1737387;82;21093;-80
2022/08/23 01:16:48;;;;;;;13.13;6.67;;;;;;;18.77;91.05;98616.26;1708229;82;21046;-80
2022/08/23 01:19:35;;;;;;;17.17;7.28;;;;;;;18.78;90.39;98616.64;1743948;82;21003;-80
2022/08/23 01:22:22;;;;;;;16.00;6.53;;;;;;;18.80;89.85;98617.42;1744473;82;21062;-80
2022/08/23 01:24:50;;;;;;;18.73;6.83;;;;;;;18.79;90.94;98630.65;1798746;79;20998;-81
2022/08/23 01:27:17;;;;;;;12.23;6.33;;;;;;;18.80;90.01;98631.03;1800906;80;21038;-81
2022/08/23 01:29:44;;;;;;;14.98;6.45;;;;;;;18.76;89.72;98618.53;1765096;80;21029;-80
2022/08/23 01:32:13;;;;;;;15.95;6.90;;;;;;;18.73;90.00;98608.67;1798335;80;20998;-80
2022/08/23 01:34:40;;;;;;;13.50;7.10;;;;;;;18.71;90.39;98604.82;1801186;80;21013;-80
2022/08/23 01:37:08;;;;;;;15.28;7.15;;;;;;;18.63;89.93;98601.38;1801027;80;21026;-80
2022/08/23 01:39:36;;;;;;;16.62;7.30;;;;;;;18.56;91.41;98610.64;1761417;81;20979;-80
2022/08/23 01:42:06;;;;;;;20.40;7.20;;;;;;;18.54;91.39;98608.55;1761632;81;20974;-81
2022/08/23 01:44:34;;;;;;;15.40;7.50;;;;;;;18.53;92.11;98609.98;1784202;80;21534;-80
2022/08/23 01:47:02;;;;;;;14.25;7.17;;;;;;;18.51;92.27;98611.88;1746508;81;21062;-81
2022/08/23 01:49:29;;;;;;;16.30;8.25;;;;;;;18.49;91.54;98616.75;1775319;80;21054;-81
2022/08/23 01:51:56;;;;;;;14.85;7.33;;;;;;;18.45;91.70;98610.48;1808146;79;21061;-80
2022/08/23 01:54:22;;;;;;;16.20;7.90;;;;;;;18.43;91.50;98618.48;1810181;79;20923;-81
2022/08/23 01:56:50;;;;;;;15.48;7.75;;;;;;;18.41;91.95;98623.47;1809863;79;21026;-80
2022/08/23 01:59:17;;;;;;;15.53;7.75;;;;;;;18.36;92.21;98616.34;1810261;79;21058;-80
2022/08/23 02:01:46;;;;;;;18.85;7.28;;;;;;;18.34;91.64;98619.06;1776607;80;21505;-80
2022/08/23 02:04:13;;;;;;;13.60;7.22;;;;;;;18.35;92.21;98620.77;1805236;79;20983;-81
2022/08/23 02:06:40;;;;;;;14.20;7.17;;;;;;;18.38;91.98;98621.03;1805523;79;21115;-80
2022/08/23 02:09:08;;;;;;;17.62;7.05;;;;;;;18.40;92.56;98617.38;1805508;79;21026;-80
2022/08/23 02:11:40;;;;;;;12.20;6.00;;;;;;;18.40;92.14;98619.14;1802639;79;20986;-81
2022/08/23 02:14:14;;;;;;;9.60;5.95;;;;;;;18.41;92.91;98616.41;1787124;79;21447;-82
2022/08/23 02:16:51;;;;;;;17.95;6.80;;;;;;;18.38;92.21;98617.95;1807226;79;21055;-81
2022/08/23 02:19:19;;;;;;;16.57;6.67;;;;;;;18.32;92.61;98615.68;1787811;79;21013;-81
2022/08/23 02:21:47;;;;;;;13.80;7.20;;;;;;;18.32;92.88;98614.84;1809845;79;21028;-80
2022/08/23 02:24:20;;;;;;;10.98;6.28;;;;;;;18.35;92.69;98619.92;1805498;79;20982;-81
2022/08/23 02:26:51;;;;;;;12.63;5.72;;;;;;;18.38;92.43;98618.39;1783129;79;21015;-81
2022/08/23 02:29:22;;;;;;;13.00;5.67;;;;;;;18.38;92.35;98617.95;1805508;79;21451;-81
2022/08/23 02:31:49;;;;;;;9.80;5.50;;;;;;;18.36;91.85;98622.44;1805265;79;20999;-80
2022/08/23 02:34:18;;;;;;;9.65;4.95;;;;;;;18.34;91.76;98627.44;1788362;79;21017;-80
2022/08/23 02:36:44;;;;;;;11.93;5.08;;;;;;;18.34;91.42;98628.75;1810377;79;20986;-81
2022/08/23 02:39:13;;;;;;;10.80;5.70;;;;;;;18.33;91.93;98631.02;1787507;79;21105;-80
2022/08/23 02:41:40;;;;;;;10.03;5.35;;;;;;;18.35;92.10;98633.08;1805422;79;20971;-82
2022/08/23 02:44:09;;;;;;;11.35;5.58;;;;;;;18.38;92.58;98635.05;1805352;79;20975;-80
2022/08/23 02:46:37;;;;;;;12.00;5.97;;;;;;;18.35;91.24;98644.45;1805247;79;21026;-81
2022/08/23 02:49:06;;;;;;;12.05;6.03;;;;;;;18.32;91.78;98635.42;1801238;79;21070;-81
2022/08/23 02:51:34;;;;;;;14.03;6.80;;;;;;;18.28;92.12;98626.03;1799178;80;21054;-81
2022/08/23 02:54:00;;;;;;;16.05;7.42;;;;;;;18.26;92.08;98631.87;1796538;80;21473;-80
2022/08/23 02:56:28;;;;;;;14.75;7.42;;;;;;;18.23;90.94;98628.14;1799055;80;21006;-81
2022/08/23 02:58:55;;;;;;;11.60;6.25;;;;;;;18.20;91.75;98627.00;1799005;80;21000;-81
2022/08/23 03:01:28;;;;;;;16.10;6.17;;;;;;;18.18;92.42;98629.72;1799241;80;20979;-81
2022/08/23 03:03:59;;;;;;;12.68;6.80;;;;;;;18.21;92.70;98636.12;1773945;80;21006;-80
2022/08/23 03:06:26;;;;;;;20.80;7.28;;;;;;;18.24;92.36;98640.33;1791669;80;21051;-81
2022/08/23 03:08:55;;;;;;;15.38;6.30;;;;;;;18.27;92.43;98644.09;1785102;80;21006;-80
2022/08/23 03:11:23;;;;;;;16.20;7.87;;;;;;;18.31;92.65;98645.59;1797622;80;20987;-80
2022/08/23 03:13:55;;;;;;;18.30;6.65;;;;;;;18.35;92.57;98653.66;1774144;80;21007;-80
2022/08/23 03:16:22;;;;;;;17.85;6.53;;;;;;;18.37;92.26;98662.77;1799199;80;21529;-81
2022/08/23 03:18:50;;;;;;;13.03;6.25;;;;;;;18.39;92.46;98664.36;1798910;80;21042;-81
2022/08/23 03:21:19;;;;;;;14.03;5.90;;;;;;;18.39;91.68;98666.16;1799121;80;20982;-80
2022/08/23 03:23:48;;;;;;;14.33;6.30;;;;;;;18.40;92.23;98664.75;1798495;80;21325;-81
2022/08/23 03:26:16;;;;;;;13.22;6.08;;;;;;;18.41;91.95;98670.37;1748417;82;21030;-80
2022/08/23 03:28:45;;;;;;;13.50;6.65;;;;;;;18.43;91.75;98672.91;1799141;80;20986;-80
2022/08/23 03:31:14;;;;;;;13.58;5.75;;;;;;;18.43;91.90;98679.01;1797668;80;21034;-82
2022/08/23 03:33:46;;;;;;;10.68;5.72;;;;;;;18.46;92.07;98686.72;1787251;80;20983;-81
2022/08/23 03:36:13;;;;;;;14.73;6.75;;;;;;;18.42;90.91;98684.36;1799809;80;20975;-80
2022/08/23 03:38:41;;;;;;;10.40;5.70;;;;;;;18.36;91.05;98683.44;1801302;80;20975;-82
2022/08/23 03:41:09;;;;;;;11.03;6.15;;;;;;;18.34;90.78;98692.74;1800112;80;20987;-82
2022/08/23 03:43:57;;;;;;;9.48;5.22;;;;;;;18.32;91.05;98691.99;1799978;80;20983;-81
2022/08/23 03:46:24;;;;;;;12.33;5.90;;;;;;;18.28;90.54;98685.23;1718506;83;21571;-81
2022/08/23 03:48:59;;;;;;;13.93;5.83;;;;;;;18.24;90.97;98689.00;1718138;83;21129;-80
2022/08/23 03:51:28;;;;;;;14.90;6.37;;;;;;;18.20;91.19;98694.09;1712328;83;21019;-81
2022/08/23 03:53:58;;;;;;;12.10;6.00;;;;;;;18.18;91.70;98699.92;1691391;83;21042;-81
2022/08/23 03:56:29;;;;;;;11.70;5.72;;;;;;;18.15;91.75;98706.70;1718087;82;21024;-81
2022/08/23 03:59:01;;;;;;;12.35;6.00;;;;;;;18.04;91.49;98708.19;1698991;83;21021;-80
2022/08/23 04:01:28;;;;;;;13.35;5.85;;;;;;;18.04;91.49;98708.19;1698019;83;21515;-80
2022/08/23 04:03:58;;;;;;;14.38;6.42;;;;;;;18.06;92.14;98706.78;1718058;82;22316;-81
2022/08/23 04:06:24;;;;;;;12.80;6.95;;;;;;;18.07;92.34;98706.70;1711520;83;21057;-81
2022/08/23 04:08:53;;;;;;;15.00;6.90;;;;;;;18.08;91.81;98703.59;1704857;82;21049;-80
2022/08/23 04:11:20;;;;;;;17.65;7.08;;;;;;;18.09;91.66;98707.45;1718072;83;20990;-81
2022/08/23 04:13:50;;;;;;;16.95;7.55;;;;;;;18.12;92.65;98708.20;1717122;83;21103;-79
2022/08/23 04:16:17;;;;;;;15.60;7.03;;;;;;;18.13;92.89;98713.37;1718202;83;21026;-81
2022/08/23 04:18:45;;;;;;;14.73;7.92;;;;;;;18.13;92.48;98708.11;1706896;83;21062;-81
2022/08/23 04:21:17;;;;;;;16.02;6.62;;;;;;;18.16;92.80;98714.95;1718203;83;21046;-80
2022/08/23 04:23:44;;;;;;;19.90;7.33;;;;;;;18.14;93.01;98723.41;1717884;82;21022;-80
2022/08/23 04:26:11;;;;;;;14.38;6.95;;;;;;;18.18;92.43;98719.17;1712583;83;21036;-80
2022/08/23 04:28:38;;;;;;;17.10;7.53;;;;;;;18.23;92.45;98725.48;1715476;82;21019;-81
2022/08/23 04:31:06;;;;;;;16.75;7.40;;;;;;;18.28;92.72;98722.08;1712475;83;21033;-81
2022/08/23 04:33:34;;;;;;;16.75;7.00;;;;;;;18.35;92.79;98720.77;1718072;82;21522;-81
2022/08/23 04:36:03;;;;;;;15.03;7.60;;;;;;;18.42;92.49;98727.34;1718009;82;21517;-81
2022/08/23 04:38:31;;;;;;;21.10;7.30;;;;;;;18.48;92.40;98718.19;1718110;82;21050;-81
2022/08/23 04:43:46;;;;;;;15.38;8.03;;;;;;;18.64;92.66;98712.78;1718107;82;21025;-80
2022/08/23 04:46:15;;;;;;;15.45;6.67;;;;;;;18.71;92.07;98721.99;1709661;83;21081;-81
2022/08/23 04:48:44;;;;;;;14.70;7.35;;;;;;;18.69;91.96;98719.45;1711188;83;21030;-81
2022/08/23 04:51:12;;;;;;;16.20;7.42;;;;;;;18.77;91.46;98726.02;1711615;83;21051;-80
2022/08/23 04:53:39;;;;;;;15.65;6.62;;;;;;;18.76;91.55;98725.63;1697928;84;21032;-81
2022/08/23 04:56:25;;;;;;;13.83;6.60;;;;;;;18.84;91.41;98732.59;1679315;83;21451;-80
2022/08/23 04:58:52;;;;;;;13.78;6.03;;;;;;;18.89;91.40;98726.57;1699668;83;21162;-80
2022/08/23 05:01:19;;;;;;;10.43;5.45;;;;;;;18.98;91.10;98727.30;1668969;84;21036;-81
2022/08/23 05:03:46;;;;;;;14.90;6.17;;;;;;;19.02;90.62;98720.87;1700207;84;21529;-80
2022/08/23 05:06:13;;;;;;;13.95;7.25;;;;;;;19.04;90.16;98724.73;1692453;84;21046;-80
2022/08/23 05:08:40;;;;;;;15.78;7.00;;;;;;;19.05;89.72;98732.52;1689695;84;21024;-80
2022/08/23 05:11:10;;;;;;;16.10;6.95;;;;;;;19.03;89.54;98726.98;1689552;84;21036;-80
2022/08/23 05:13:38;;;;;;;15.15;7.17;;;;;;;19.08;89.32;98739.39;1689833;84;21083;-81
2022/08/23 05:16:06;;;;;;;13.18;6.75;;;;;;;19.06;88.75;98736.02;1686448;84;21083;-81
2022/08/23 05:18:35;;;;;;;14.83;7.17;;;;;;;18.98;88.88;98741.78;1686016;85;21095;-81
2022/08/23 05:21:02;;;;;;;16.97;7.92;;;;;;;18.96;89.14;98746.76;1690169;85;21079;-81
2022/08/23 05:23:29;;;;;;;12.47;7.87;;;;;;;18.97;88.98;98747.14;1690162;84;21530;-82
2022/08/23 05:25:58;;;;;;;14.07;7.67;;;;;;;19.00;89.07;98745.61;1690472;84;21122;-83
2022/08/23 05:28:31;;;;;;;14.07;6.87;;;;;;;19.03;88.49;98750.70;1705101;82;21074;-81
2022/08/23 05:31:06;;;;;;;11.80;5.83;;;;;;;19.06;88.44;98753.14;1691440;81;21035;-81
2022/08/23 05:33:36;;;;;;;13.75;7.25;;;;;;;19.08;89.05;98760.47;1690232;84;21032;-81
2022/08/23 05:36:05;;;;;;;16.55;7.72;;;;;;;19.18;89.25;98758.92;1689894;84;21000;-81
2022/08/23 05:38:33;;;;;;;14.07;6.70;;;;;;;19.30;89.38;98761.67;1689950;84;21560;-81
2022/08/23 05:41:01;;;;;;;11.53;6.85;;;;;;;19.41;89.07;98756.53;1689752;84;22226;-81
2022/08/23 05:43:29;;;;;;;10.30;5.60;;;;;;;19.51;88.79;98755.45;1703226;84;20999;-81
2022/08/23 05:46:09;;;;;;;12.35;5.55;;;;;;;19.54;88.27;98746.87;1681221;84;21082;-80
2022/08/23 05:48:39;;;;;;;10.08;5.78;;;;;;;19.66;88.44;98748.67;1715192;84;21029;-81
2022/08/23 05:51:18;;;;;;;11.75;5.17;;;;;;;19.77;88.12;98747.95;1715339;82;21033;-80
2022/08/23 05:53:47;;;;;;;10.82;5.53;;;;;;;19.86;87.61;98757.05;1714382;84;21050;-80
2022/08/23 05:56:28;;;;;;;10.70;5.08;;;;;;;19.95;87.57;98757.72;1715222;84;20986;-81
2022/08/23 05:58:59;;;;;;;11.50;5.67;;;;;;;20.01;87.18;98762.56;1712529;83;21578;-80
2022/08/23 06:01:28;;;;;;;10.28;5.50;;;;;;;20.12;86.93;98768.92;1688288;83;21061;-81
2022/08/23 06:04:05;;;;;;;9.70;5.28;;;;;;;20.18;86.31;98765.85;1725904;82;21038;-81
2022/08/23 06:06:34;;;;;;;10.20;5.97;;;;;;;20.17;85.76;98771.58;1715550;83;20967;-80
2022/08/23 06:09:03;;;;;;;14.65;6.20;;;;;;;20.08;84.77;98776.68;1715202;84;21577;-80
2022/08/23 06:11:31;;;;;;;11.38;6.17;;;;;;;20.06;85.00;98770.19;1712693;82;20972;-81
2022/08/23 06:14:19;;;;;;;8.75;5.67;;;;;;;20.00;84.53;98766.17;1773400;79;21081;-82
2022/08/23 06:16:49;;;;;;;12.58;5.80;;;;;;;19.96;85.00;98766.02;1753331;79;20965;-80
2022/08/23 06:19:18;;;;;;;15.32;6.03;;;;;;;20.02;84.95;98766.91;1778447;80;21033;-79
2022/08/23 06:21:56;;;;;;;11.33;6.05;;;;;;;20.02;84.43;98774.82;1760972;81;21074;-81
2022/08/23 06:24:25;;;;;;;10.30;6.12;;;;;;;19.97;84.68;98767.69;1750139;81;21663;-81
2022/08/23 06:27:03;;;;;;;12.63;5.37;;;;;;;19.99;84.77;98768.91;1739620;81;20955;-80
2022/08/23 06:29:31;;;;;;;11.63;6.30;;;;;;;20.04;84.80;98772.92;1754482;81;21477;-80
2022/08/23 06:32:03;;;;;;;11.15;5.17;;;;;;;20.04;84.27;98776.05;1694854;81;20969;-80
2022/08/23 06:34:35;;;;;;;13.38;6.15;;;;;;;20.02;84.65;98775.30;1746917;81;21009;-79
2022/08/23 06:37:13;;;;;;;14.55;6.72;;;;;;;20.10;85.01;98770.34;1742482;81;21015;-81
2022/08/23 06:40:00;;;;;;;9.98;5.65;;;;;;;20.14;84.25;98774.94;1719636;82;21062;-81
2022/08/23 06:42:40;;;;;;;11.38;6.08;;;;;;;20.19;84.65;98778.08;1654772;85;21019;-80
2022/08/23 06:45:09;;;;;;;13.28;5.53;;;;;;;20.28;84.58;98776.61;1727714;81;21484;-80
2022/08/23 06:47:38;;;;;;;10.48;6.47;;;;;;;20.31;84.31;98785.62;1754297;81;21041;-81
2022/08/23 06:50:05;;;;;;;12.85;6.47;;;;;;;20.33;83.92;98776.63;1754354;81;21019;-80
2022/08/23 06:52:51;;;;;;;10.55;5.92;;;;;;;20.37;83.65;98769.34;1755099;81;20987;-81
2022/08/23 06:55:26;;;;;;;10.35;5.95;;;;;;;20.43;83.46;98764.49;1745973;82;21513;-81
2022/08/23 06:57:56;;;;;;;10.88;6.70;;;;;;;20.52;83.33;98768.75;1756651;81;21443;-81
2022/08/23 07:00:30;;;;;;;9.95;5.70;;;;;;;20.56;83.14;98765.77;1761678;81;20995;-81
2022/08/23 07:03:01;;;;;;;8.85;5.00;;;;;;;20.62;82.71;98761.39;1733750;82;21006;-81
2022/08/23 07:05:47;;;;;;;12.75;5.10;;;;;;;20.67;82.19;98765.02;1747541;81;21018;-81
2022/08/23 07:08:24;;;;;;;9.95;5.08;;;;;;;20.73;82.56;98764.61;1745331;81;21082;-81
2022/08/23 07:10:51;;;;;;;9.68;5.55;;;;;;;20.83;83.07;98762.98;1766499;81;21010;-81
2022/08/23 07:13:18;;;;;;;9.78;5.35;;;;;;;20.91;82.25;98757.59;1745632;82;21595;-81
2022/08/23 07:15:45;;;;;;;9.70;5.33;;;;;;;20.96;82.22;98761.59;1747647;81;20975;-82
2022/08/23 07:18:12;;;;;;;10.05;5.17;;;;;;;21.01;82.32;98763.92;1748634;81;21009;-80
2022/08/23 07:20:39;;;;;;;8.68;4.72;;;;;;;21.08;82.39;98758.53;1763990;81;21003;-80
2022/08/23 07:23:06;;;;;;;7.75;4.12;;;;;;;21.19;82.19;98760.39;1726821;82;21548;-80
2022/08/23 07:25:33;;;;;;;11.33;4.90;;;;;;;21.32;82.19;98758.50;1762054;81;21029;-80
2022/08/23 07:28:01;;;;;;;11.50;4.87;;;;;;;21.35;81.67;98757.45;1715769;82;21605;-82
2022/08/23 07:30:28;;;;;;;12.90;6.03;;;;;;;21.45;81.94;98759.80;1767530;81;21030;-82
2022/08/23 07:32:56;;;;;;;10.03;5.28;;;;;;;21.51;81.08;98763.30;1765876;80;21054;-82
2022/08/23 07:35:24;;;;;;;11.18;5.60;;;;;;;21.57;80.12;98767.28;1716962;82;21088;-82
2022/08/23 07:37:57;;;;;;;12.82;5.95;;;;;;;21.56;79.61;98761.13;1738053;82;21002;-82
2022/08/23 07:40:26;;;;;;;10.70;5.53;;;;;;;21.64;79.30;98771.14;1768044;81;20998;-82
2022/08/23 07:42:57;;;;;;;11.65;5.08;;;;;;;21.74;79.00;98765.98;1757683;81;21610;-83
2022/08/23 07:45:24;;;;;;;12.78;7.05;;;;;;;21.81;79.61;98761.44;1722084;82;21014;-81
2022/08/23 07:47:53;;;;;;;13.53;6.95;;;;;;;21.95;79.33;98760.86;1744180;81;20994;-81
2022/08/23 07:50:21;;;;;;;10.72;5.20;;;;;;;21.99;78.05;98755.20;1746060;81;21522;-83
2022/08/23 07:52:48;;;;;;;9.38;4.47;;;;;;;22.01;78.43;98761.22;1748416;81;21090;-82
2022/08/23 07:55:15;;;;;;;12.37;5.37;;;;;;;22.11;78.05;98762.67;1751269;81;21014;-81
2022/08/23 07:57:56;;;;;;;9.45;4.47;;;;;;;22.15;77.89;98759.31;1750112;81;21034;-83
2022/08/23 08:00:40;;;;;;;10.38;4.00;;;;;;;22.26;77.83;98762.46;1768107;80;21118;-81
2022/08/23 08:03:12;;;;;;;7.03;3.95;;;;;;;22.35;77.69;98762.58;1764131;81;21006;-82
2022/08/23 08:05:49;;;;;;;7.05;3.80;;;;;;;22.41;77.50;98758.61;1715071;81;21086;-81
2022/08/23 08:08:16;;;;;;;6.33;3.75;;;;;;;22.52;77.00;98760.39;1747896;81;21109;-82
2022/08/23 08:10:44;;;;;;;6.87;3.52;;;;;;;22.64;77.35;98768.67;1747201;81;21445;-82
2022/08/23 08:13:11;;;;;;;7.00;3.65;;;;;;;22.71;76.90;98772.53;1725695;81;21058;-81
2022/08/23 08:15:41;;;;;;;7.58;3.70;;;;;;;22.80;76.23;98766.95;1740709;81;21024;-80
2022/08/23 08:18:09;;;;;;;6.12;3.58;;;;;;;22.89;75.80;98766.72;1730551;82;20975;-82
2022/08/23 08:20:55;;;;;;;11.40;4.35;;;;;;;22.88;76.02;98757.06;1736928;82;21024;-84
2022/08/23 08:23:42;;;;;;;7.65;3.20;;;;;;;22.96;74.50;98762.58;1658135;85;21144;-80
2022/08/23 08:26:11;;;;;;;10.72;3.50;;;;;;;23.08;73.36;98755.47;1650748;85;21093;-81
2022/08/23 08:28:39;;;;;;;7.25;3.30;;;;;;;23.02;73.34;98760.32;1685067;82;21037;-81
2022/08/23 08:31:07;;;;;;;5.70;3.20;;;;;;;23.08;73.55;98769.59;1740265;82;21107;-81
2022/08/23 08:33:35;;;;;;;9.18;3.83;;;;;;;23.14;72.92;98763.78;1738368;82;21020;-81
2022/08/23 08:36:04;;;;;;;6.42;3.52;;;;;;;23.21;73.15;98761.45;1734790;82;21025;-84
2022/08/23 08:38:31;;;;;;;5.10;3.08;;;;;;;23.23;73.20;98762.16;1719391;82;20985;-83
2022/08/23 08:41:19;;;;;;;9.28;3.50;;;;;;;23.25;72.68;98764.20;1736238;81;21453;-82
2022/08/23 08:44:25;;;;;;;6.53;3.33;;;;;;;23.30;72.65;98759.83;1734955;81;21062;-82
2022/08/23 08:46:56;;;;;;;5.00;3.70;;;;;;;23.35;72.71;98760.30;1660195;84;21058;-82
2022/08/23 08:49:34;;;;;;;5.83;3.60;;;;;;;23.42;72.07;98761.00;1681473;84;21020;-81
2022/08/23 08:52:09;;;;;;;6.28;3.62;;;;;;;23.51;72.07;98757.21;1702500;84;21083;-82
2022/08/23 08:54:39;;;;;;;8.78;3.75;;;;;;;23.53;71.64;98757.92;1709717;83;21056;-82
2022/08/23 08:57:07;;;;;;;6.22;3.35;;;;;;;23.55;71.47;98759.47;1710861;83;21098;-80
2022/08/23 08:59:56;;;;;;;6.95;3.27;;;;;;;23.65;71.98;98758.21;1706704;83;21034;-80
2022/08/23 09:02:29;;;;;;;4.97;3.05;;;;;;;23.75;72.78;98759.60;1734854;82;21063;-80
2022/08/23 09:04:57;;;;;;;5.08;3.30;;;;;;;23.91;72.13;98753.36;1749734;82;20972;-80
2022/08/23 09:07:57;;;;;;;8.03;3.05;;;;;;;24.00;70.60;98759.22;1745056;82;21509;-81
2022/08/23 09:10:33;;;;;;;6.72;3.20;;;;;;;24.09;70.31;98754.09;1745328;82;20993;-80
2022/08/23 09:13:36;;;;;;;5.78;3.22;;;;;;;24.19;69.98;98757.16;1740616;81;21075;-80
2022/08/23 09:16:46;;;;;;;6.53;3.20;;;;;;;24.32;70.17;98754.26;1749296;81;21066;-80
2022/08/23 09:19:14;;;;;;;5.62;3.25;;;;;;;24.47;68.26;98752.55;1762649;81;21010;-80
2022/08/23 09:21:57;;;;;;;9.83;3.50;;;;;;;24.54;69.07;98753.73;1742601;81;20985;-80
2022/08/23 09:24:25;;;;;;;8.38;3.15;;;;;;;24.58;67.43;98754.64;1719111;82;21524;-81
2022/08/23 09:26:55;;;;;;;8.73;3.30;;;;;;;24.68;69.31;98749.86;1747739;81;21155;-81
2022/08/23 09:29:30;;;;;;;7.53;3.62;;;;;;;24.82;68.36;98746.80;1766454;80;21464;-80
2022/08/23 09:32:01;;;;;;;4.97;3.00;;;;;;;24.87;68.73;98739.73;1757414;81;21036;-79
2022/08/23 09:34:35;;;;;;;8.48;4.03;;;;;;;24.94;66.95;98739.04;1759813;81;21015;-80
2022/08/23 09:37:21;;;;;;;8.90;4.00;;;;;;;25.01;67.68;98742.00;1754814;81;21039;-80
2022/08/23 09:39:53;;;;;;;9.73;3.47;;;;;;;24.99;66.76;98735.98;1764593;81;21127;-81
2022/08/23 09:42:35;;;;;;;10.28;3.83;;;;;;;25.07;67.10;98740.12;1767858;80;21037;-80
2022/08/23 09:45:32;;;;;;;5.08;3.25;;;;;;;25.20;67.83;98734.00;1723390;81;20995;-80
2022/08/23 09:48:00;;;;;;;7.53;3.35;;;;;;;25.37;67.24;98733.00;1758492;81;21053;-79
2022/08/23 09:50:44;;;;;;;7.85;3.35;;;;;;;25.49;67.76;98730.53;1769262;81;21032;-80
2022/08/23 09:53:14;;;;;;;5.07;3.50;;;;;;;25.68;67.95;98722.98;1768781;81;21019;-80
2022/08/23 09:55:47;;;;;;;5.12;3.33;;;;;;;25.91;68.13;98731.51;1762692;81;21013;-80
2022/08/23 09:58:34;;;;;;;10.48;3.45;;;;;;;26.10;66.82;98727.09;1745224;81;21141;-81
2022/08/23 10:01:12;;;;;;;6.15;3.25;;;;;;;26.11;66.27;98714.96;1763023;81;21578;-80
2022/08/23 10:03:41;;;;;;;8.18;3.12;;;;;;;26.25;65.27;98720.30;1746955;81;21002;-80
2022/08/23 10:06:19;;;;;;;5.97;3.02;;;;;;;26.41;65.84;98720.16;1748535;81;21048;-80
2022/08/23 10:08:55;;;;;;;6.85;3.47;;;;;;;26.52;63.87;98716.80;1764649;81;21086;-80
2022/08/23 10:11:31;;;;;;;8.90;3.58;;;;;;;26.63;62.19;98709.61;1727808;82;21081;-82
2022/08/23 10:13:58;;;;;;;8.93;3.72;;;;;;;26.73;63.27;98705.87;1756201;81;21007;-81
2022/08/23 10:17:11;;;;;;;8.15;4.03;;;;;;;26.74;62.32;98703.56;1766950;81;21464;-80
2022/08/23 10:20:13;;;;;;;7.37;3.45;;;;;;;26.83;62.58;98702.31;1761528;81;21040;-82
2022/08/23 10:22:49;;;;;;;6.47;3.40;;;;;;;26.95;61.86;98696.58;1757862;81;21004;-80
2022/08/23 10:25:40;;;;;;;9.30;3.42;;;;;;;27.05;60.40;98699.17;1768470;81;21023;-81
2022/08/23 10:31:50;;;;;;;6.15;3.40;;;;;;;27.28;61.75;98692.08;1769889;80;21073;-81
2022/08/23 10:34:42;;;;;;;10.53;3.20;;;;;;;27.43;61.87;98695.83;1769840;81;21371;-81
2022/08/23 10:38:02;;;;;;;6.55;3.27;;;;;;;27.65;59.94;98681.63;1769659;80;21011;-81
2022/08/23 10:40:40;;;;;;;8.85;3.80;;;;;;;27.73;60.32;98689.69;1767472;80;21010;-82
2022/08/23 10:43:52;;;;;;;7.37;3.55;;;;;;;27.78;59.75;98684.72;1769194;81;21018;-81
2022/08/23 10:46:22;;;;;;;8.03;4.45;;;;;;;27.80;59.16;98671.22;1750860;81;21357;-81
2022/08/23 10:48:56;;;;;;;11.63;5.03;;;;;;;27.76;57.60;98676.03;1769626;80;20990;-81
2022/08/23 10:51:37;;;;;;;11.75;3.45;;;;;;;27.79;58.96;98670.36;1767701;80;21086;-81
2022/08/23 10:54:27;;;;;;;7.62;3.58;;;;;;;27.86;58.03;98670.07;1762730;81;21024;-80
2022/08/23 10:56:47;;;;;;;8.38;3.58;;;;;;;27.94;58.36;98670.65;1764838;80;21004;-81
2022/08/23 10:59:22;;;;;;;12.55;3.80;;;;;;;28.05;58.62;98656.16;1757653;81;20963;-82
2022/08/23 11:01:58;;;;;;;5.03;3.47;;;;;;;28.14;57.92;98665.89;1764198;80;21102;-80
2022/08/23 11:04:50;;;;;;;9.28;3.65;;;;;;;28.18;55.92;98660.55;1768105;81;20998;-82
2022/08/23 11:07:36;;;;;;;10.82;4.00;;;;;;;28.25;56.68;98658.92;1766416;81;21002;-81
2022/08/23 11:10:30;;;;;;;10.38;3.83;;;;;;;28.25;57.09;98657.59;1768325;81;21063;-82
2022/08/23 11:13:05;;;;;;;6.30;3.30;;;;;;;28.32;55.92;98653.75;1766305;81;21006;-84
2022/08/23 11:15:59;;;;;;;9.00;3.55;;;;;;;28.40;56.22;98644.41;1715259;81;21022;-83
2022/08/23 11:18:44;;;;;;;9.53;3.58;;;;;;;28.53;55.89;98646.16;1747791;81;21046;-83
2022/08/23 11:21:32;;;;;;;8.83;3.25;;;;;;;28.69;54.90;98637.32;1744148;81;21024;-82
2022/08/23 11:24:05;;;;;;;8.70;3.70;;;;;;;28.81;54.25;98636.50;1747257;81;20994;-82
2022/08/23 11:26:47;;;;;;;9.50;3.90;;;;;;;28.90;54.61;98631.97;1725637;82;21034;-83
2022/08/23 11:29:25;;;;;;;8.08;3.65;;;;;;;29.07;54.66;98636.33;1765102;81;21018;-83
2022/08/23 11:32:02;;;;;;;9.50;4.03;;;;;;;29.21;53.65;98634.84;1748719;81;21494;-82
2022/08/23 11:34:52;;;;;;;6.78;4.10;;;;;;;29.28;49.63;98628.30;1679393;83;28491;-82
2022/08/23 11:37:25;;;;;;;4.92;3.20;;;;;;;29.35;50.32;98626.63;1736250;81;21010;-82
2022/08/23 11:40:03;;;;;;;9.60;3.75;;;;;;;29.35;49.96;98629.30;1768631;80;21080;-84
2022/08/23 11:42:42;;;;;;;8.23;3.40;;;;;;;29.50;51.19;98628.08;1718062;82;21065;-82
2022/08/23 11:45:32;;;;;;;6.45;3.60;;;;;;;29.67;49.96;98632.39;1748244;81;21034;-82
2022/08/23 11:48:27;;;;;;;7.80;3.55;;;;;;;29.72;51.52;98619.84;1746635;81;21004;-81
2022/08/23 11:51:22;;;;;;;8.05;3.60;;;;;;;29.92;50.75;98629.17;1755351;81;21091;-81
2022/08/23 11:53:54;;;;;;;6.12;3.30;;;;;;;30.08;51.15;98631.42;1749639;81;21006;-80
2022/08/23 11:56:47;;;;;;;6.20;2.85;;;;;;;30.32;50.63;98635.36;1748685;81;21028;-80
2022/08/23 11:59:33;;;;;;;7.15;3.70;;;;;;;30.61;48.98;98635.17;1748269;81;21014;-81
2022/08/23 12:02:38;;;;;;;9.25;3.50;;;;;;;30.58;49.94;98633.34;1757068;81;21033;-81
2022/08/23 12:05:31;;;;;;;11.50;3.47;;;;;;;30.77;48.61;98636.08;1760234;81;20963;-83
2022/08/23 12:08:08;;;;;;;8.60;3.42;;;;;;;30.62;48.10;98642.70;1765835;80;21006;-81
2022/08/23 12:10:46;;;;;;;7.75;4.17;;;;;;;30.77;48.63;98638.24;1768781;80;21002;-81
2022/08/23 12:13:25;;;;;;;6.25;3.83;;;;;;;31.01;49.21;98649.32;1763309;80;20991;-81